Time;durP1;ratioP1;P1;durP2;ratioP2;P2;SDS_P1;SDS_P2;PMS_P1;PMS_P2;Temp;Humidity;BMP_temperature;BMP_pressure;BME280_temperature;BME280_humidity;BME280_pressure;Samples;Min_cycle;Max_cycle;Signal;HPM_P1;HPM_P2
2021/11/04 00:01:32;;;;;;;5.15;1.88;;;;;;;11.24;60.77;97616.22;5112280;28;20038;-51
2021/11/04 00:03:58;;;;;;;12.80;2.55;;;;;;;10.95;61.47;97614.31;5112395;28;20501;-52
2021/11/04 00:06:24;;;;;;;5.30;2.15;;;;;;;10.97;62.06;97614.88;5112295;28;20102;-51
2021/11/04 00:08:50;;;;;;;3.22;2.03;;;;;;;10.96;61.82;97610.63;5110719;28;20058;-52
2021/11/04 00:11:15;;;;;;;8.10;3.25;;;;;;;10.79;62.38;97610.53;5112269;28;20450;-52
2021/11/04 00:13:41;;;;;;;4.80;2.08;;;;;;;10.79;62.28;97615.78;5112270;28;20024;-51
2021/11/04 00:16:10;;;;;;;7.20;2.40;;;;;;;10.75;62.31;97612.03;5112191;28;20023;-52
2021/11/04 00:18:36;;;;;;;8.60;2.40;;;;;;;10.67;62.49;97611.56;5110852;28;20446;-52
2021/11/04 00:21:03;;;;;;;5.40;2.25;;;;;;;10.61;62.51;97615.09;5093691;28;20066;-52
2021/11/04 00:23:28;;;;;;;4.15;2.25;;;;;;;10.37;63.00;97621.09;5110768;28;20030;-51
2021/11/04 00:25:54;;;;;;;9.73;3.63;;;;;;;10.33;63.34;97624.41;5112129;28;20016;-52
2021/11/04 00:28:20;;;;;;;3.60;2.17;;;;;;;10.36;63.96;97631.81;5112087;28;20023;-51
2021/11/04 00:30:46;;;;;;;3.97;2.05;;;;;;;10.41;63.20;97639.03;5113369;28;20020;-51
2021/11/04 00:33:12;;;;;;;6.65;2.15;;;;;;;10.33;63.74;97629.66;5116251;28;20031;-51
2021/11/04 00:35:38;;;;;;;12.48;2.90;;;;;;;10.29;64.01;97629.25;5116158;28;20020;-52
2021/11/04 00:38:04;;;;;;;8.93;3.90;;;;;;;10.18;63.82;97643.13;5097816;28;20030;-52
2021/11/04 00:40:31;;;;;;;5.45;2.53;;;;;;;10.05;64.37;97638.88;5115996;28;20537;-52
2021/11/04 00:42:56;;;;;;;3.55;2.63;;;;;;;10.00;64.56;97642.16;5116103;28;20031;-51
2021/11/04 00:45:23;;;;;;;10.70;2.40;;;;;;;10.02;64.68;97638.50;5097660;28;20019;-52
2021/11/04 00:47:50;;;;;;;3.33;2.08;;;;;;;10.15;64.56;97640.97;5115957;28;20023;-52
2021/11/04 00:50:16;;;;;;;8.07;2.65;;;;;;;10.28;64.47;97642.59;5115920;28;20515;-51
2021/11/04 00:52:42;;;;;;;12.88;6.05;;;;;;;10.41;64.63;97649.50;5097499;28;20031;-51
2021/11/04 00:55:09;;;;;;;4.20;2.55;;;;;;;10.50;65.83;97635.84;5115833;28;20066;-51
2021/11/04 00:57:36;;;;;;;4.90;2.75;;;;;;;10.47;66.27;97640.75;5116073;28;20032;-52
2021/11/04 01:00:06;;;;;;;15.65;4.10;;;;;;;10.35;67.01;97646.75;5115941;28;20453;-51
2021/11/04 01:02:34;;;;;;;6.70;4.55;;;;;;;10.29;67.08;97645.00;5114318;28;20024;-51
2021/11/04 01:04:59;;;;;;;7.55;2.80;;;;;;;10.25;67.11;97653.53;5114777;28;20042;-51
2021/11/04 01:07:25;;;;;;;5.13;2.50;;;;;;;10.24;66.99;97660.63;5123462;27;20051;-51
2021/11/04 01:09:51;;;;;;;12.02;3.72;;;;;;;10.28;66.53;97653.91;5117670;27;20096;-52
2021/11/04 01:12:17;;;;;;;7.65;5.03;;;;;;;10.32;66.15;97657.69;5117536;27;20492;-51
2021/11/04 01:14:42;;;;;;;5.80;3.10;;;;;;;10.37;66.06;97654.41;5135984;27;20497;-51
2021/11/04 01:17:08;;;;;;;995.90;791.70;;;;;;;10.36;65.62;97661.47;5135904;27;20062;-51
2021/11/04 01:19:34;;;;;;;93.55;83.57;;;;;;;10.29;65.66;97670.44;5135845;27;20019;-52
2021/11/04 01:22:00;;;;;;;896.90;654.08;;;;;;;10.30;66.07;97675.47;5135746;27;20023;-51
2021/11/04 01:24:26;;;;;;;60.00;44.17;;;;;;;10.40;65.74;97667.06;5135827;27;20015;-52
2021/11/04 01:26:51;;;;;;;87.47;78.25;;;;;;;10.49;65.14;97676.22;5135713;27;20396;-51
2021/11/04 01:29:17;;;;;;;11.13;7.70;;;;;;;10.53;64.99;97679.97;5135725;27;20076;-51
2021/11/04 01:31:43;;;;;;;7.43;5.47;;;;;;;10.53;64.92;97679.19;5135643;27;20031;-52
2021/11/04 01:34:08;;;;;;;6.40;3.75;;;;;;;10.48;64.63;97687.72;5135645;27;20051;-51
2021/11/04 01:36:34;;;;;;;3.47;2.80;;;;;;;10.33;64.73;97689.97;5117166;27;20030;-51
2021/11/04 01:39:00;;;;;;;4.18;2.83;;;;;;;10.36;65.05;97692.94;5117103;27;20438;-51
2021/11/04 01:41:26;;;;;;;10.48;3.47;;;;;;;10.41;65.01;97692.28;5116454;27;20027;-51
2021/11/04 01:43:51;;;;;;;7.10;3.35;;;;;;;10.72;64.29;97696.44;5116998;27;20015;-51
2021/11/04 01:46:21;;;;;;;7.82;4.32;;;;;;;10.83;63.54;97692.25;5135388;27;20027;-51
2021/11/04 01:48:48;;;;;;;6.20;3.03;;;;;;;10.95;63.56;97695.69;5116923;27;20046;-52
2021/11/04 01:51:14;;;;;;;7.32;3.35;;;;;;;11.25;63.08;97692.16;5135302;27;20023;-52
2021/11/04 01:53:40;;;;;;;6.15;2.88;;;;;;;11.55;62.48;97697.28;5116740;27;20026;-52
2021/11/04 01:56:06;;;;;;;4.75;2.67;;;;;;;11.90;61.54;97704.31;5135191;27;20027;-52
2021/11/04 01:58:32;;;;;;;15.50;3.17;;;;;;;11.97;61.35;97702.38;5135159;27;20019;-51
2021/11/04 02:00:58;;;;;;;9.18;3.40;;;;;;;12.01;60.54;97702.69;5116563;27;20023;-51
2021/11/04 02:03:38;;;;;;;5.97;2.70;;;;;;;11.84;60.47;97707.06;5116582;27;20448;-51
2021/11/04 02:06:33;;;;;;;3.78;2.83;;;;;;;11.60;60.16;97705.25;5135116;27;20055;-51
2021/11/04 02:09:20;;;;;;;5.53;3.58;;;;;;;11.28;60.85;97710.09;5075964;28;20036;-51
2021/11/04 02:11:59;;;;;;;6.05;2.60;;;;;;;10.98;61.70;97710.97;5094039;28;20059;-52
2021/11/04 02:14:31;;;;;;;9.95;3.72;;;;;;;10.92;62.33;97709.25;5094012;28;20554;-51
2021/11/04 02:17:01;;;;;;;8.88;2.78;;;;;;;10.99;62.43;97715.22;5092555;28;20055;-52
2021/11/04 02:19:45;;;;;;;6.13;3.30;;;;;;;11.16;62.59;97711.91;5093859;28;20103;-52
2021/11/04 02:22:29;;;;;;;6.75;3.20;;;;;;;11.47;61.89;97715.19;5093807;28;20024;-52
2021/11/04 02:25:29;;;;;;;4.60;3.05;;;;;;;11.60;60.51;97707.88;5092390;28;20028;-52
2021/11/04 02:28:02;;;;;;;11.43;3.80;;;;;;;11.38;61.07;97717.38;5081512;28;20108;-52
2021/11/04 02:30:30;;;;;;;6.70;3.50;;;;;;;11.32;61.29;97721.72;5093677;28;20024;-52
2021/11/04 02:32:56;;;;;;;9.73;3.30;;;;;;;11.36;61.25;97717.63;5092267;28;20111;-51
2021/11/04 02:35:22;;;;;;;7.47;3.13;;;;;;;11.31;60.95;97719.34;5093556;28;20020;-52
2021/11/04 02:37:52;;;;;;;7.53;2.70;;;;;;;11.22;61.41;97720.72;5109184;28;20024;-52
2021/11/04 02:40:19;;;;;;;4.53;3.10;;;;;;;11.14;61.24;97721.84;5093348;28;20474;-51
2021/11/04 02:42:45;;;;;;;5.60;3.00;;;;;;;11.07;61.67;97721.97;5092006;28;20382;-51
2021/11/04 02:45:15;;;;;;;8.05;3.42;;;;;;;11.03;61.60;97723.44;5093328;28;20031;-52
2021/11/04 02:47:43;;;;;;;5.20;3.20;;;;;;;11.02;61.79;97721.03;5093399;28;20435;-52
2021/11/04 02:50:10;;;;;;;4.60;3.00;;;;;;;10.94;61.66;97724.78;5091916;28;20024;-52
2021/11/04 02:52:36;;;;;;;5.47;3.10;;;;;;;10.77;61.84;97727.28;5091502;28;20032;-52
2021/11/04 02:55:05;;;;;;;8.05;3.75;;;;;;;10.71;62.06;97731.59;5092696;28;20069;-52
2021/11/04 02:57:32;;;;;;;4.78;3.30;;;;;;;10.55;62.12;97732.22;5093185;28;20533;-52
2021/11/04 02:59:58;;;;;;;6.35;3.42;;;;;;;10.33;63.05;97732.72;5093102;28;20101;-52
2021/11/04 03:02:24;;;;;;;6.60;3.25;;;;;;;10.27;63.30;97736.19;5092949;28;20059;-53
2021/11/04 03:04:49;;;;;;;10.90;3.83;;;;;;;10.28;63.29;97748.31;5091629;28;20020;-52
2021/11/04 03:07:15;;;;;;;12.07;4.45;;;;;;;10.31;63.39;97745.25;5105996;27;20434;-52
2021/11/04 03:09:41;;;;;;;6.00;3.25;;;;;;;10.21;63.58;97747.56;5133717;27;20500;-52
2021/11/04 03:12:08;;;;;;;7.60;3.88;;;;;;;10.09;64.58;97757.22;5133676;27;20023;-51
2021/11/04 03:14:34;;;;;;;7.10;3.70;;;;;;;10.09;64.79;97757.22;5133711;27;20030;-52
2021/11/04 03:17:02;;;;;;;7.57;4.25;;;;;;;10.19;65.04;97760.09;5133512;27;20073;-52
2021/11/04 03:19:29;;;;;;;9.43;4.05;;;;;;;10.17;64.62;97756.91;5133531;27;20023;-52
2021/11/04 03:21:56;;;;;;;10.57;4.75;;;;;;;10.13;64.89;97767.03;5133435;27;20023;-52
2021/11/04 03:24:23;;;;;;;5.70;3.35;;;;;;;10.20;65.03;97767.75;5115043;27;20141;-52
2021/11/04 03:26:54;;;;;;;6.53;3.75;;;;;;;10.28;64.72;97761.41;5133397;27;20094;-52
2021/11/04 03:29:23;;;;;;;6.97;3.75;;;;;;;10.23;64.78;97761.25;5133495;27;20504;-52
2021/11/04 03:31:51;;;;;;;5.82;3.85;;;;;;;10.18;65.22;97766.34;5133374;27;20027;-52
2021/11/04 03:34:18;;;;;;;4.30;3.60;;;;;;;10.25;65.11;97774.16;5114863;27;20047;-52
2021/11/04 03:36:49;;;;;;;4.90;3.15;;;;;;;10.34;65.11;97764.97;5133232;27;20030;-52
2021/11/04 03:39:19;;;;;;;6.25;4.15;;;;;;;10.43;64.96;97771.53;5133282;27;20056;-52
2021/11/04 03:41:47;;;;;;;10.32;4.13;;;;;;;10.49;64.49;97770.66;5133448;27;20023;-52
2021/11/04 03:44:15;;;;;;;6.38;3.63;;;;;;;10.55;64.61;97767.13;5133170;27;20388;-52
2021/11/04 03:46:43;;;;;;;7.72;4.30;;;;;;;10.61;64.34;97780.41;5133027;27;20035;-52
2021/11/04 03:49:11;;;;;;;6.22;4.03;;;;;;;10.65;64.28;97778.94;5133031;27;20023;-52
2021/11/04 03:51:37;;;;;;;8.40;3.85;;;;;;;10.62;64.05;97784.59;5114596;27;20034;-52
2021/11/04 03:54:03;;;;;;;7.70;3.97;;;;;;;10.48;64.22;97795.25;5133028;27;20550;-52
2021/11/04 03:56:29;;;;;;;12.95;4.30;;;;;;;10.35;64.63;97792.81;5133288;27;20047;-52
2021/11/04 03:58:55;;;;;;;8.05;4.05;;;;;;;10.24;64.77;97804.84;5132962;27;20031;-52
2021/11/04 04:01:22;;;;;;;5.60;3.80;;;;;;;10.21;64.53;97800.00;5132869;27;20062;-52
2021/11/04 04:03:48;;;;;;;6.03;3.92;;;;;;;10.13;64.43;97808.97;5132974;27;20495;-52
2021/11/04 04:06:13;;;;;;;13.05;5.55;;;;;;;10.11;64.51;97805.75;5132683;27;20060;-51
2021/11/04 04:08:47;;;;;;;11.80;4.25;;;;;;;10.07;64.59;97812.47;5132649;27;20462;-52
2021/11/04 04:11:13;;;;;;;12.95;4.25;;;;;;;10.11;64.62;97818.88;5132810;28;20020;-52
2021/11/04 04:13:38;;;;;;;10.07;4.40;;;;;;;10.07;64.29;97820.34;5132792;28;20038;-52
2021/11/04 04:16:04;;;;;;;11.27;3.85;;;;;;;9.99;64.51;97818.00;5114252;28;20023;-51
2021/11/04 04:18:30;;;;;;;10.60;4.13;;;;;;;10.08;64.58;97819.31;5132697;28;20102;-52
2021/11/04 04:20:55;;;;;;;11.38;4.63;;;;;;;10.11;64.96;97823.31;5114181;28;20039;-52
2021/11/04 04:23:21;;;;;;;11.80;4.63;;;;;;;10.12;65.34;97814.44;5132745;28;20370;-52
2021/11/04 04:25:47;;;;;;;12.60;4.93;;;;;;;10.02;66.35;97825.44;5132676;28;20022;-52
2021/11/04 04:28:13;;;;;;;13.07;4.68;;;;;;;10.00;67.19;97835.34;5132660;28;20109;-52
2021/11/04 04:30:39;;;;;;;17.10;4.47;;;;;;;9.94;67.75;97830.94;5132665;28;20396;-52
2021/11/04 04:33:05;;;;;;;10.00;4.30;;;;;;;9.96;67.68;97834.97;5114126;28;20019;-52
2021/11/04 04:35:31;;;;;;;10.38;4.03;;;;;;;9.90;67.38;97838.47;5132611;28;20031;-52
2021/11/04 04:37:57;;;;;;;10.40;3.88;;;;;;;9.92;67.12;97840.84;5132550;28;20019;-52
2021/11/04 04:40:22;;;;;;;6.40;4.20;;;;;;;9.86;66.63;97844.34;5132455;28;20500;-52
2021/11/04 04:42:48;;;;;;;6.82;4.15;;;;;;;9.80;66.67;97846.81;5114167;28;20020;-53
2021/11/04 04:45:17;;;;;;;8.05;4.13;;;;;;;9.80;66.81;97844.19;5132501;28;20023;-52
2021/11/04 04:47:44;;;;;;;5.93;3.80;;;;;;;9.78;66.46;97848.84;5132549;28;20019;-52
2021/11/04 04:50:10;;;;;;;8.13;3.80;;;;;;;9.74;66.01;97855.53;5132434;28;20023;-52
2021/11/04 04:52:37;;;;;;;8.50;3.90;;;;;;;9.65;65.99;97850.78;5132427;28;20019;-52
2021/11/04 04:55:04;;;;;;;5.93;3.53;;;;;;;9.64;66.12;97857.84;5132423;28;20019;-52
2021/11/04 04:57:30;;;;;;;9.70;4.00;;;;;;;9.69;66.71;97858.00;5113931;28;20030;-52
2021/11/04 04:59:58;;;;;;;8.77;3.53;;;;;;;9.90;66.25;97855.97;5114221;28;20057;-52
2021/11/04 05:02:25;;;;;;;6.63;4.15;;;;;;;9.94;66.10;97863.22;5132285;28;20500;-52
2021/11/04 05:04:51;;;;;;;7.10;4.05;;;;;;;9.98;65.99;97858.34;5132359;28;20489;-52
2021/11/04 05:07:18;;;;;;;5.63;3.15;;;;;;;10.11;65.87;97860.81;5131954;28;20052;-52
2021/11/04 05:09:44;;;;;;;8.38;4.07;;;;;;;10.33;65.34;97853.34;5132266;28;20020;-52
2021/11/04 05:12:10;;;;;;;4.75;3.70;;;;;;;10.30;64.64;97850.38;5132180;28;20028;-52
2021/11/04 05:14:36;;;;;;;10.40;4.40;;;;;;;10.05;64.74;97853.03;5114000;28;20044;-52
2021/11/04 05:17:03;;;;;;;14.05;4.00;;;;;;;9.84;65.21;97865.53;5133714;27;20106;-53
2021/11/04 05:19:29;;;;;;;11.77;3.33;;;;;;;9.74;65.96;97867.84;5136026;27;20055;-52
2021/11/04 05:21:55;;;;;;;5.03;3.05;;;;;;;9.71;65.47;97870.88;5135863;27;20122;-52
2021/11/04 05:24:21;;;;;;;11.40;7.50;;;;;;;9.63;65.44;97871.94;5135804;27;20019;-52
2021/11/04 05:26:48;;;;;;;10.82;3.92;;;;;;;9.51;65.46;97877.06;5117352;27;20026;-52
2021/11/04 05:29:14;;;;;;;8.77;3.13;;;;;;;9.33;65.67;97883.03;5135798;27;20019;-52
2021/11/04 05:31:40;;;;;;;5.32;3.45;;;;;;;9.31;66.02;97886.88;5135719;27;20149;-52
2021/11/04 05:34:06;;;;;;;7.45;4.25;;;;;;;9.40;65.43;97889.03;5135612;27;20102;-52
2021/11/04 05:36:32;;;;;;;8.52;3.53;;;;;;;9.48;65.12;97888.00;5135637;27;20500;-52
2021/11/04 05:38:58;;;;;;;9.10;4.28;;;;;;;9.59;65.40;97896.97;5117095;27;20051;-52
2021/11/04 05:41:25;;;;;;;8.95;4.07;;;;;;;9.64;65.11;97891.91;5135381;27;20062;-52
2021/11/04 05:43:51;;;;;;;6.07;3.33;;;;;;;9.69;64.94;97892.03;5117051;27;20019;-52
2021/11/04 05:46:17;;;;;;;8.70;3.70;;;;;;;9.62;64.75;97886.06;5135437;27;20076;-52
2021/11/04 05:48:43;;;;;;;6.45;3.70;;;;;;;9.49;64.71;97891.41;5135409;27;20023;-52
2021/11/04 05:51:09;;;;;;;6.68;4.10;;;;;;;9.30;65.09;97899.19;5135365;27;20027;-52
2021/11/04 05:53:35;;;;;;;7.22;4.20;;;;;;;9.19;65.26;97898.06;5116931;27;20030;-52
2021/11/04 05:56:02;;;;;;;5.03;3.45;;;;;;;9.14;65.35;97900.50;5135268;27;20023;-52
2021/11/04 05:58:28;;;;;;;11.13;4.30;;;;;;;9.10;65.89;97909.78;5135214;27;20022;-52
2021/11/04 06:00:54;;;;;;;4.15;3.67;;;;;;;9.06;65.64;97915.66;5116623;27;20065;-52
2021/11/04 06:03:20;;;;;;;6.95;3.85;;;;;;;8.97;66.03;97920.31;5135137;27;20023;-53
2021/11/04 06:05:46;;;;;;;6.78;3.97;;;;;;;8.91;66.44;97929.78;5135020;27;20034;-53
2021/11/04 06:08:12;;;;;;;10.93;5.13;;;;;;;8.91;66.00;97924.53;5134730;27;20547;-53
2021/11/04 06:10:37;;;;;;;6.47;4.03;;;;;;;8.96;66.42;97934.41;5134970;27;20023;-52
2021/11/04 06:13:04;;;;;;;9.32;4.15;;;;;;;8.99;66.19;97931.34;5134939;27;20030;-52
2021/11/04 06:15:29;;;;;;;13.88;3.95;;;;;;;9.05;66.32;97940.19;5134852;27;20489;-52
2021/11/04 06:17:55;;;;;;;6.30;3.78;;;;;;;9.06;65.96;97950.47;5134837;27;20063;-52
2021/11/04 06:20:21;;;;;;;7.40;4.15;;;;;;;9.10;66.10;97948.25;5134654;27;20019;-52
2021/11/04 06:22:47;;;;;;;11.32;4.35;;;;;;;9.18;66.61;97953.22;5134711;27;20447;-52
2021/11/04 06:25:13;;;;;;;6.97;3.58;;;;;;;9.32;66.15;97961.81;5134648;27;20015;-52
2021/11/04 06:27:39;;;;;;;7.63;4.38;;;;;;;9.32;65.69;97957.38;5133936;27;20026;-52
2021/11/04 06:30:06;;;;;;;6.78;3.65;;;;;;;9.29;65.98;97963.03;5134110;27;20019;-52
2021/11/04 06:32:34;;;;;;;9.38;4.38;;;;;;;9.31;66.04;97962.81;5134528;27;20399;-52
2021/11/04 06:35:00;;;;;;;5.20;4.15;;;;;;;9.29;65.82;97963.03;5134372;27;20015;-52
2021/11/04 06:37:26;;;;;;;5.25;3.85;;;;;;;9.20;65.81;97959.84;5115960;27;20063;-52
2021/11/04 06:39:52;;;;;;;13.05;5.00;;;;;;;9.14;66.51;97963.31;5115989;27;20668;-52
2021/11/04 06:42:18;;;;;;;11.48;5.40;;;;;;;9.07;66.95;97966.97;5134241;27;20390;-52
2021/11/04 06:44:43;;;;;;;10.25;5.72;;;;;;;9.00;66.92;97977.47;5134296;27;20072;-52
2021/11/04 06:47:26;;;;;;;8.27;5.38;;;;;;;8.89;66.84;97989.38;5134112;27;20049;-52
2021/11/04 06:49:56;;;;;;;7.22;5.68;;;;;;;8.83;66.80;97992.00;5134261;27;20385;-51
2021/11/04 06:52:36;;;;;;;7.90;5.53;;;;;;;8.80;66.81;97991.41;5134119;27;20528;-52
2021/11/04 06:55:05;;;;;;;6.80;4.20;;;;;;;8.88;66.74;98000.88;5134139;27;20027;-51
2021/11/04 06:57:34;;;;;;;14.13;5.65;;;;;;;9.02;66.52;97998.22;5134039;27;20106;-52
2021/11/04 07:00:04;;;;;;;12.07;5.53;;;;;;;9.31;66.46;98005.50;5115524;27;20527;-52
2021/11/04 07:02:33;;;;;;;8.13;6.65;;;;;;;9.97;65.77;98004.31;5133839;27;20023;-52
2021/11/04 07:05:00;;;;;;;18.77;7.00;;;;;;;10.47;64.22;98011.41;5133888;27;20019;-51
2021/11/04 07:07:26;;;;;;;11.57;5.55;;;;;;;10.69;64.12;98011.81;5133602;27;20039;-52
2021/11/04 07:09:52;;;;;;;7.70;4.68;;;;;;;10.77;62.97;98021.22;5115313;27;20027;-52
2021/11/04 07:12:18;;;;;;;7.80;5.15;;;;;;;10.67;63.19;98024.34;5133704;27;20021;-52
2021/11/04 07:14:44;;;;;;;9.07;5.95;;;;;;;10.63;62.60;98032.88;5133721;27;20049;-52
2021/11/04 07:17:11;;;;;;;7.75;4.93;;;;;;;10.50;63.01;98031.97;5133566;27;20027;-52
2021/11/04 07:19:38;;;;;;;13.52;4.82;;;;;;;10.54;63.12;98030.53;5133613;27;20019;-52
2021/11/04 07:22:30;;;;;;;8.85;5.38;;;;;;;10.90;62.66;98038.66;5133502;27;20015;-52
2021/11/04 07:25:04;;;;;;;28.45;17.30;;;;;;;11.82;62.12;98040.38;5133563;27;20110;-52
2021/11/04 07:27:54;;;;;;;22.45;12.23;;;;;;;13.09;58.96;98039.09;5115041;27;20102;-52
2021/11/04 07:30:22;;;;;;;26.33;10.65;;;;;;;13.86;55.70;98043.19;5114959;27;20033;-53
2021/11/04 07:33:00;;;;;;;15.85;5.75;;;;;;;13.50;56.31;98053.09;5133391;27;20027;-52
2021/11/04 07:35:40;;;;;;;15.88;5.95;;;;;;;12.94;59.72;98053.53;5133366;27;20035;-52
2021/11/04 07:38:09;;;;;;;21.50;6.68;;;;;;;12.51;61.87;98059.16;5133364;27;20415;-52
2021/11/04 07:40:35;;;;;;;17.95;6.25;;;;;;;12.16;62.43;98059.91;5132774;27;20030;-52
2021/11/04 07:43:01;;;;;;;13.70;6.50;;;;;;;11.86;63.53;98062.56;5114774;27;20054;-52
2021/11/04 07:45:29;;;;;;;15.35;6.45;;;;;;;11.78;64.29;98066.28;5133123;27;20438;-52
2021/11/04 07:47:55;;;;;;;8.60;5.90;;;;;;;11.84;65.23;98070.66;5133216;27;20162;-52
2021/11/04 07:50:24;;;;;;;14.10;6.78;;;;;;;12.02;65.68;98071.66;5133067;27;20106;-52
2021/11/04 07:52:50;;;;;;;9.43;5.03;;;;;;;12.10;64.83;98077.41;5133087;27;20060;-52
2021/11/04 07:55:17;;;;;;;8.10;5.00;;;;;;;12.12;63.55;98077.19;5132985;27;20023;-52
2021/11/04 07:57:43;;;;;;;9.73;5.55;;;;;;;12.08;63.87;98078.66;5132975;27;20559;-52
2021/11/04 08:00:29;;;;;;;12.02;5.88;;;;;;;12.23;63.67;98079.00;5132977;27;20399;-52
2021/11/04 08:02:55;;;;;;;15.20;6.18;;;;;;;12.45;62.60;98094.28;5114516;28;20027;-52
2021/11/04 08:05:22;;;;;;;9.68;4.75;;;;;;;12.75;61.81;98086.28;5132856;27;20062;-52
2021/11/04 08:07:48;;;;;;;27.65;17.85;;;;;;;12.99;61.00;98093.13;5132608;27;20043;-52
2021/11/04 08:10:16;;;;;;;9.77;5.35;;;;;;;13.19;59.53;98103.31;5132813;27;20015;-52
2021/11/04 08:12:42;;;;;;;7.13;5.30;;;;;;;13.23;58.87;98100.22;5132794;27;20609;-52
2021/11/04 08:15:10;;;;;;;10.20;5.72;;;;;;;13.13;58.72;98103.44;5132755;27;20046;-51
2021/11/04 08:17:37;;;;;;;8.95;5.60;;;;;;;12.88;59.05;98101.88;5132743;27;20412;-52
2021/11/04 08:20:05;;;;;;;9.32;4.97;;;;;;;12.75;59.18;98102.09;5132719;28;20050;-52
2021/11/04 08:22:32;;;;;;;5.97;3.70;;;;;;;12.62;57.22;98099.69;5132645;28;20057;-52
2021/11/04 08:24:59;;;;;;;7.53;4.25;;;;;;;12.12;58.14;98106.09;5132644;28;20023;-52
2021/11/04 08:27:25;;;;;;;16.63;3.65;;;;;;;12.02;59.33;98114.53;5132629;28;20046;-51
2021/11/04 08:29:50;;;;;;;16.13;4.10;;;;;;;12.42;59.45;98113.97;5132636;28;20033;-52
2021/11/04 08:32:16;;;;;;;5.97;3.30;;;;;;;12.74;58.11;98114.47;5114130;28;20121;-52
2021/11/04 08:34:43;;;;;;;11.50;3.53;;;;;;;12.94;57.76;98121.22;5114155;28;20019;-52
2021/11/04 08:37:12;;;;;;;5.97;3.53;;;;;;;13.24;57.24;98130.81;5114118;28;20365;-51
2021/11/04 08:39:39;;;;;;;6.13;3.17;;;;;;;13.50;56.64;98119.00;5132508;28;20019;-52
2021/11/04 08:42:06;;;;;;;6.60;3.33;;;;;;;13.91;55.77;98125.06;5132471;28;20437;-52
2021/11/04 08:44:32;;;;;;;8.80;3.58;;;;;;;15.66;52.55;98121.38;5132461;28;20063;-52
2021/11/04 08:47:03;;;;;;;4.57;2.80;;;;;;;17.50;49.58;98118.63;5132466;28;20031;-52
2021/11/04 08:49:30;;;;;;;3.28;2.22;;;;;;;18.88;45.70;98107.47;5113977;28;20031;-51
2021/11/04 08:51:56;;;;;;;9.15;3.15;;;;;;;18.55;44.81;98114.88;5133883;27;20027;-50
2021/11/04 08:54:23;;;;;;;3.80;2.65;;;;;;;17.98;45.13;98121.22;5117959;27;20030;-51
2021/11/04 08:56:49;;;;;;;6.30;2.45;;;;;;;17.40;44.71;98130.00;5136377;27;20038;-50
2021/11/04 08:59:15;;;;;;;7.30;3.30;;;;;;;16.92;45.84;98126.53;5136374;27;20102;-50
2021/11/04 09:01:42;;;;;;;3.85;2.10;;;;;;;16.60;45.88;98134.50;5117729;27;20088;-50
2021/11/04 09:04:08;;;;;;;4.80;2.25;;;;;;;16.34;45.91;98145.69;5136318;27;20043;-50
2021/11/04 09:06:34;;;;;;;3.42;2.40;;;;;;;15.88;46.47;98145.22;5135911;27;20031;-50
2021/11/04 09:09:03;;;;;;;11.23;2.85;;;;;;;15.53;47.33;98150.84;5117752;27;20046;-52
2021/11/04 09:11:30;;;;;;;7.60;2.35;;;;;;;15.66;47.51;98139.91;5136156;27;20027;-52
2021/11/04 09:13:59;;;;;;;7.60;3.25;;;;;;;15.77;46.61;98154.88;5136107;27;20023;-53
2021/11/04 09:16:26;;;;;;;7.35;2.95;;;;;;;15.77;46.95;98151.41;5136086;27;20098;-52
2021/11/04 09:18:53;;;;;;;8.10;2.20;;;;;;;16.47;45.90;98157.69;5135939;27;20412;-52
2021/11/04 09:21:19;;;;;;;4.07;2.10;;;;;;;17.93;44.29;98153.84;5135865;27;20507;-52
2021/11/04 09:23:45;;;;;;;5.30;2.08;;;;;;;19.18;41.69;98146.50;5135901;27;20523;-50
2021/11/04 09:26:11;;;;;;;5.03;2.20;;;;;;;20.59;39.32;98152.50;5117623;27;20031;-50
2021/11/04 09:28:38;;;;;;;5.22;2.05;;;;;;;21.79;37.54;98156.38;5135866;27;20027;-51
2021/11/04 09:31:05;;;;;;;6.88;1.85;;;;;;;23.12;34.67;98144.50;5135844;27;20553;-51
2021/11/04 09:33:30;;;;;;;7.07;2.25;;;;;;;22.88;34.07;98152.66;5135831;27;20023;-50
2021/11/04 09:35:56;;;;;;;5.55;2.10;;;;;;;21.10;35.43;98156.59;5135703;27;20029;-51
2021/11/04 09:38:22;;;;;;;7.55;2.22;;;;;;;20.28;37.70;98163.34;5117330;27;20038;-51
2021/11/04 09:40:48;;;;;;;4.50;2.13;;;;;;;20.90;37.22;98168.25;5135565;27;20030;-50
2021/11/04 09:43:13;;;;;;;6.28;1.92;;;;;;;21.70;35.40;98172.25;5117204;27;20053;-51
2021/11/04 09:45:39;;;;;;;5.43;2.20;;;;;;;20.96;35.59;98175.13;5117078;27;20023;-51
2021/11/04 09:48:05;;;;;;;4.80;1.83;;;;;;;19.86;36.49;98174.50;5116970;27;20395;-51
2021/11/04 09:50:32;;;;;;;6.18;1.85;;;;;;;18.81;37.94;98194.66;5135405;27;20019;-51
2021/11/04 09:52:57;;;;;;;7.65;1.45;;;;;;;17.84;39.38;98197.88;5135376;27;20019;-51
2021/11/04 09:55:26;;;;;;;9.38;2.20;;;;;;;17.37;40.79;98208.22;5116853;27;20053;-51
2021/11/04 09:57:56;;;;;;;9.73;1.77;;;;;;;17.36;40.30;98203.19;5116716;27;20037;-49
2021/11/04 10:00:30;;;;;;;5.43;2.05;;;;;;;17.02;40.49;98202.69;5116637;27;20028;-50
2021/11/04 10:03:22;;;;;;;3.53;1.90;;;;;;;16.65;41.52;98198.91;5134867;27;20415;-51
2021/11/04 10:05:53;;;;;;;4.35;1.50;;;;;;;16.82;41.59;98205.97;5112687;27;20410;-51
2021/11/04 10:08:38;;;;;;;3.20;1.30;;;;;;;18.33;40.77;98194.84;5134826;27;20519;-49
2021/11/04 10:11:33;;;;;;;4.07;1.73;;;;;;;20.61;37.00;98193.00;5135000;27;20083;-51
2021/11/04 10:14:11;;;;;;;4.73;1.37;;;;;;;20.38;35.21;98194.47;5135002;27;20069;-51
2021/11/04 10:16:37;;;;;;;6.85;1.67;;;;;;;19.35;36.68;98197.50;5116523;27;20480;-51
2021/11/04 10:19:06;;;;;;;6.15;1.63;;;;;;;19.06;37.23;98202.63;5134811;27;20019;-50
2021/11/04 10:21:37;;;;;;;15.27;2.35;;;;;;;18.87;37.63;98201.56;5134738;27;20106;-51
2021/11/04 10:24:04;;;;;;;10.10;1.80;;;;;;;18.68;37.78;98209.25;5116303;27;20520;-50
2021/11/04 10:26:35;;;;;;;9.68;1.50;;;;;;;18.42;38.13;98206.56;5116189;27;20075;-51
2021/11/04 10:29:08;;;;;;;8.48;2.05;;;;;;;18.25;38.21;98216.59;5134706;27;20019;-50
2021/11/04 10:31:49;;;;;;;9.73;2.17;;;;;;;18.11;38.63;98222.41;5134662;27;20034;-51
2021/11/04 10:34:24;;;;;;;9.50;2.08;;;;;;;17.66;38.21;98220.34;5134640;27;20019;-51
2021/11/04 10:36:50;;;;;;;6.95;1.42;;;;;;;16.81;39.04;98218.44;5134509;27;20055;-50
2021/11/04 10:39:16;;;;;;;6.60;1.42;;;;;;;16.25;40.43;98220.50;5134443;27;20400;-50
2021/11/04 10:41:46;;;;;;;6.78;1.52;;;;;;;16.20;40.96;98223.09;5134361;27;20041;-50
2021/11/04 10:44:18;;;;;;;5.05;1.50;;;;;;;17.32;39.93;98210.06;5134386;27;20401;-50
2021/11/04 10:46:52;;;;;;;2.63;1.58;;;;;;;18.64;38.21;98208.19;5134306;27;20110;-50
2021/11/04 10:49:20;;;;;;;5.03;1.47;;;;;;;19.83;36.17;98199.81;5134303;27;20019;-50
2021/11/04 10:52:16;;;;;;;5.63;2.67;;;;;;;21.19;34.86;98210.94;5115697;27;20126;-51
2021/11/04 10:54:50;;;;;;;6.70;1.85;;;;;;;22.68;32.85;98206.50;5117444;27;20412;-51
2021/11/04 10:57:44;;;;;;;1.95;1.35;;;;;;;23.67;31.07;98199.94;5134073;27;20083;-50
2021/11/04 11:00:23;;;;;;;4.53;1.70;;;;;;;23.47;29.73;98208.38;5133967;27;20023;-50
2021/11/04 11:03:01;;;;;;;4.95;1.50;;;;;;;22.05;30.62;98212.94;5115773;27;20027;-51
2021/11/04 11:05:28;;;;;;;5.80;1.40;;;;;;;20.67;32.16;98220.44;5133899;27;20043;-50
2021/11/04 11:07:56;;;;;;;5.07;1.75;;;;;;;19.47;33.72;98225.72;5133645;27;20041;-51
2021/11/04 11:10:22;;;;;;;7.20;1.85;;;;;;;18.37;35.86;98227.78;5115292;27;20412;-50
2021/11/04 11:12:48;;;;;;;4.55;1.83;;;;;;;17.73;36.65;98224.34;5115322;27;20027;-51
2021/11/04 11:15:15;;;;;;;7.70;1.95;;;;;;;17.14;37.67;98224.50;5114529;27;20588;-50
2021/11/04 11:17:42;;;;;;;2.95;1.63;;;;;;;16.77;38.27;98223.41;5133692;27;20019;-50
2021/11/04 11:20:09;;;;;;;5.47;1.48;;;;;;;16.51;39.01;98232.16;5133643;27;20023;-51
2021/11/04 11:22:43;;;;;;;8.25;2.10;;;;;;;16.38;39.41;98228.88;5133546;27;20309;-50
2021/11/04 11:25:10;;;;;;;6.07;1.90;;;;;;;16.37;39.58;98224.59;5133546;27;20511;-50
2021/11/04 11:27:36;;;;;;;7.72;2.67;;;;;;;16.37;39.52;98226.47;5115078;27;20023;-50
2021/11/04 11:30:12;;;;;;;7.38;2.03;;;;;;;17.34;39.07;98226.50;5114924;27;20019;-50
2021/11/04 11:32:38;;;;;;;11.02;2.75;;;;;;;18.69;36.97;98219.63;5133495;27;20518;-51
2021/11/04 11:35:22;;;;;;;4.60;1.80;;;;;;;18.74;36.24;98216.97;5133398;27;20430;-50
2021/11/04 11:38:08;;;;;;;4.45;1.73;;;;;;;18.90;36.68;98219.66;5133382;27;20114;-50